Time;durP1;ratioP1;P1;durP2;ratioP2;P2;SDS_P1;SDS_P2;PMS_P1;PMS_P2;Temp;Humidity;BMP_temperature;BMP_pressure;BME280_temperature;BME280_humidity;BME280_pressure;Samples;Min_cycle;Max_cycle;Signal;HPM_P1;HPM_P2
2023/06/24 00:01:40;;;;;;;6.10;4.80;;;18.00;1.00;;;;;;7384975;19;20017;-70
2023/06/24 00:04:19;;;;;;;7.20;4.22;;;18.10;1.00;;;;;;7386468;19;20337;-70
2023/06/24 00:06:49;;;;;;;5.80;4.40;;;18.10;1.00;;;;;;7387558;19;20028;-70
2023/06/24 00:09:19;;;;;;;5.57;4.60;;;18.10;1.00;;;;;;7380125;19;20018;-70
2023/06/24 00:11:49;;;;;;;5.88;4.22;;;18.00;1.00;;;;;;7386111;19;20060;-70
2023/06/24 00:14:21;;;;;;;6.70;4.57;;;17.90;1.00;;;;;;7387717;19;20129;-71
2023/06/24 00:16:51;;;;;;;7.00;4.40;;;17.70;1.00;;;;;;7385375;19;20361;-71
2023/06/24 00:19:25;;;;;;;5.47;4.55;;;17.60;1.00;;;;;;7384742;19;20042;-70
2023/06/24 00:21:56;;;;;;;5.70;4.80;;;17.40;1.00;;;;;;7384840;19;20021;-70
2023/06/24 00:24:26;;;;;;;5.47;4.32;;;17.30;1.00;;;;;;7387353;19;20031;-70
2023/06/24 00:26:56;;;;;;;5.78;4.55;;;17.20;1.00;;;;;;7384161;19;20545;-70
2023/06/24 00:29:26;;;;;;;5.30;4.50;;;17.30;1.00;;;;;;7386374;19;20014;-70
2023/06/24 00:31:57;;;;;;;5.53;4.35;;;17.10;1.00;;;;;;7385160;19;20018;-71
2023/06/24 00:34:29;;;;;;;6.60;5.18;;;17.10;1.00;;;;;;7387220;19;20478;-70
2023/06/24 00:36:59;;;;;;;7.45;5.07;;;16.80;1.00;;;;;;7383032;19;20554;-70
2023/06/24 00:39:30;;;;;;;6.20;5.10;;;16.80;1.00;;;;;;7384395;19;20018;-71
2023/06/24 00:42:00;;;;;;;5.65;4.82;;;16.80;1.00;;;;;;7384811;19;20021;-70
2023/06/24 00:44:30;;;;;;;7.80;4.45;;;16.70;1.00;;;;;;7386978;19;20420;-70
2023/06/24 00:47:01;;;;;;;5.28;4.70;;;16.80;1.00;;;;;;7385842;19;20014;-70
2023/06/24 00:49:34;;;;;;;6.10;4.85;;;16.90;1.00;;;;;;7385185;19;20531;-70
2023/06/24 00:52:04;;;;;;;5.13;4.20;;;17.10;1.00;;;;;;7384458;19;20497;-70
2023/06/24 00:54:34;;;;;;;6.68;4.85;;;17.20;1.00;;;;;;7388576;19;20019;-70
2023/06/24 00:57:04;;;;;;;10.30;5.18;;;17.40;1.00;;;;;;7384254;19;20390;-70
2023/06/24 00:59:34;;;;;;;5.63;4.30;;;17.50;1.00;;;;;;7383687;19;20121;-70
2023/06/24 01:02:04;;;;;;;5.10;4.07;;;17.50;1.00;;;;;;7382138;19;20047;-71
2023/06/24 01:04:38;;;;;;;5.65;4.05;;;17.50;1.00;;;;;;7386560;19;20002;-71
2023/06/24 01:07:08;;;;;;;5.13;4.33;;;17.60;1.00;;;;;;7385693;19;20011;-71
2023/06/24 01:09:38;;;;;;;6.07;4.95;;;17.60;1.00;;;;;;7381600;19;20279;-70
2023/06/24 01:12:09;;;;;;;6.65;4.43;;;17.40;1.00;;;;;;7383273;19;20028;-70
2023/06/24 01:14:40;;;;;;;6.95;4.63;;;17.20;1.00;;;;;;7385554;19;20052;-69
2023/06/24 01:17:15;;;;;;;4.88;4.25;;;17.20;1.00;;;;;;7383583;19;20010;-70
2023/06/24 01:20:09;;;;;;;6.25;4.40;;;17.30;1.00;;;;;;7383369;19;20466;-70
2023/06/24 01:23:22;;;;;;;5.80;4.43;;;17.10;1.00;;;;;;7382562;19;20030;-70
2023/06/24 01:26:32;;;;;;;7.60;4.80;;;17.10;1.00;;;;;;7383408;19;20128;-70
2023/06/24 01:29:23;;;;;;;6.18;4.40;;;17.20;1.00;;;;;;7378942;19;20026;-70
2023/06/24 01:32:01;;;;;;;6.32;4.50;;;17.10;1.00;;;;;;7382814;19;20020;-69
2023/06/24 01:34:39;;;;;;;7.53;4.72;;;17.00;1.00;;;;;;7385249;19;20018;-70
2023/06/24 01:37:17;;;;;;;5.75;4.43;;;17.00;1.00;;;;;;7382837;19;20049;-70
2023/06/24 01:39:51;;;;;;;6.80;4.30;;;16.90;1.00;;;;;;7381680;19;20039;-70
2023/06/24 01:42:23;;;;;;;6.38;4.85;;;16.90;1.00;;;;;;7382478;19;20349;-69
2023/06/24 01:44:55;;;;;;;9.55;4.85;;;16.90;1.00;;;;;;7385517;19;20031;-70
2023/06/24 01:47:30;;;;;;;6.82;4.78;;;16.90;1.00;;;;;;7382208;19;20514;-70
2023/06/24 01:50:03;;;;;;;7.47;5.50;;;16.70;1.00;;;;;;7381143;19;20018;-70
2023/06/24 01:52:36;;;;;;;6.75;5.25;;;16.70;1.00;;;;;;7382956;19;20421;-70
2023/06/24 01:55:09;;;;;;;6.20;5.10;;;16.90;1.00;;;;;;7385642;19;20015;-71
2023/06/24 01:57:42;;;;;;;6.40;4.60;;;16.90;1.00;;;;;;7380238;19;20496;-71
2023/06/24 02:00:14;;;;;;;5.68;5.05;;;16.70;1.00;;;;;;7381406;19;20056;-69
2023/06/24 02:02:49;;;;;;;6.47;4.95;;;16.60;1.00;;;;;;7380204;19;20053;-69
2023/06/24 02:05:20;;;;;;;6.68;4.55;;;16.60;1.00;;;;;;7383188;19;20533;-69
2023/06/24 02:07:52;;;;;;;6.53;4.63;;;16.50;1.00;;;;;;7385244;19;20042;-69
2023/06/24 02:10:24;;;;;;;5.60;4.80;;;16.50;1.00;;;;;;7380666;19;20015;-69
2023/06/24 02:12:56;;;;;;;7.38;5.05;;;16.60;1.00;;;;;;7380640;19;20577;-69
2023/06/24 02:15:27;;;;;;;7.03;5.22;;;16.70;1.00;;;;;;7385249;19;20018;-69
2023/06/24 02:18:02;;;;;;;8.88;4.82;;;16.60;1.00;;;;;;7381565;19;20019;-71
2023/06/24 02:20:34;;;;;;;6.93;5.00;;;16.60;1.00;;;;;;7381109;19;20046;-69
2023/06/24 02:23:04;;;;;;;6.63;5.18;;;16.60;1.00;;;;;;7381402;19;20421;-70
2023/06/24 02:25:36;;;;;;;7.28;5.00;;;16.50;1.00;;;;;;7385424;19;20340;-70
2023/06/24 02:28:06;;;;;;;5.20;4.60;;;16.50;1.00;;;;;;7382089;19;20035;-69
2023/06/24 02:30:38;;;;;;;7.10;5.60;;;16.50;1.00;;;;;;7385301;19;20085;-70
2023/06/24 02:33:11;;;;;;;6.90;5.32;;;16.50;1.00;;;;;;7378671;19;20018;-69
2023/06/24 02:35:41;;;;;;;7.03;5.93;;;16.60;1.00;;;;;;7385185;19;20019;-69
2023/06/24 02:38:12;;;;;;;6.70;5.53;;;16.50;1.00;;;;;;7379060;19;20018;-70
2023/06/24 02:40:42;;;;;;;8.57;5.78;;;16.50;1.00;;;;;;7384091;19;20034;-70
2023/06/24 02:43:12;;;;;;;7.63;6.00;;;16.40;1.00;;;;;;7380568;19;20052;-70
2023/06/24 02:45:42;;;;;;;9.57;5.60;;;16.20;1.00;;;;;;7384914;19;20093;-70
2023/06/24 02:48:16;;;;;;;7.15;5.90;;;16.30;1.00;;;;;;7378580;19;20014;-71
2023/06/24 02:50:47;;;;;;;9.25;6.20;;;16.30;1.00;;;;;;7379521;19;20018;-70
2023/06/24 02:53:17;;;;;;;10.20;6.32;;;16.40;1.00;;;;;;7382646;19;20930;-70
2023/06/24 02:55:48;;;;;;;7.72;5.85;;;16.30;1.00;;;;;;7384924;19;20018;-70
2023/06/24 02:58:18;;;;;;;8.52;5.80;;;16.40;1.00;;;;;;7380718;19;20051;-70
2023/06/24 03:00:49;;;;;;;6.50;5.80;;;16.40;1.00;;;;;;7379072;19;20078;-70
2023/06/24 03:03:23;;;;;;;7.55;6.20;;;16.50;1.00;;;;;;7380681;19;20374;-71
2023/06/24 03:05:54;;;;;;;8.80;6.93;;;16.40;1.00;;;;;;7383174;19;20053;-70
2023/06/24 03:08:24;;;;;;;10.07;6.97;;;16.30;1.00;;;;;;7382982;19;20352;-70
2023/06/24 03:10:56;;;;;;;10.18;6.85;;;16.30;1.00;;;;;;7378775;19;20010;-70
2023/06/24 03:13:27;;;;;;;10.40;6.65;;;16.30;1.00;;;;;;7379441;19;20018;-70
2023/06/24 03:15:57;;;;;;;8.63;6.38;;;16.30;1.00;;;;;;7379678;19;20039;-70
2023/06/24 03:18:29;;;;;;;11.07;6.63;;;16.20;1.00;;;;;;7380099;19;20077;-69
2023/06/24 03:20:59;;;;;;;10.40;7.32;;;16.20;1.00;;;;;;7378004;19;20022;-69
2023/06/24 03:23:29;;;;;;;8.90;6.55;;;16.10;1.00;;;;;;7377122;19;20469;-69
2023/06/24 03:25:59;;;;;;;8.45;6.78;;;16.10;1.00;;;;;;7379142;19;20863;-68
2023/06/24 03:28:29;;;;;;;9.40;7.50;;;16.20;1.00;;;;;;7379301;19;20783;-69
2023/06/24 03:30:59;;;;;;;7.70;6.45;;;16.30;1.00;;;;;;7377890;19;20019;-69
2023/06/24 03:33:34;;;;;;;8.02;6.35;;;16.40;1.00;;;;;;7377295;19;20038;-69
2023/06/24 03:36:04;;;;;;;10.27;7.13;;;16.40;1.00;;;;;;7380688;19;20534;-69
2023/06/24 03:38:34;;;;;;;7.30;6.47;;;16.40;1.00;;;;;;7383015;19;20015;-69
2023/06/24 03:41:04;;;;;;;10.25;6.88;;;16.60;1.00;;;;;;7377428;19;20052;-69
2023/06/24 03:43:34;;;;;;;9.85;7.05;;;16.70;1.00;;;;;;7380267;19;20351;-69
2023/06/24 03:46:04;;;;;;;7.65;6.32;;;17.30;1.00;;;;;;7383737;19;20015;-71
2023/06/24 03:48:37;;;;;;;7.28;6.30;;;17.70;1.00;;;;;;7386092;19;20035;-70
2023/06/24 03:51:07;;;;;;;7.15;6.03;;;18.10;1.00;;;;;;7384563;19;20022;-70
2023/06/24 03:53:37;;;;;;;8.75;6.30;;;18.50;1.00;;;;;;7388493;19;20492;-70
2023/06/24 03:56:07;;;;;;;8.27;6.82;;;19.10;1.00;;;;;;7385955;19;20039;-70
2023/06/24 03:58:37;;;;;;;8.43;6.00;;;19.00;1.00;;;;;;7386146;19;20074;-70
2023/06/24 04:01:09;;;;;;;9.18;6.78;;;19.60;1.00;;;;;;7383884;19;20483;-70
2023/06/24 04:03:41;;;;;;;9.13;6.45;;;19.30;1.00;;;;;;7385663;19;20496;-69
2023/06/24 04:06:11;;;;;;;7.03;5.97;;;19.80;1.00;;;;;;7386836;19;20021;-70
2023/06/24 04:08:43;;;;;;;8.82;6.03;;;20.10;1.00;;;;;;7390590;19;20033;-69
2023/06/24 04:11:13;;;;;;;8.52;6.07;;;20.20;1.00;;;;;;7383540;19;20025;-69
2023/06/24 04:13:43;;;;;;;9.93;6.32;;;20.40;1.00;;;;;;7384431;19;20014;-69
2023/06/24 04:16:13;;;;;;;6.97;5.60;;;20.30;1.00;;;;;;7385847;19;20015;-70
2023/06/24 04:18:45;;;;;;;8.23;6.03;;;20.30;1.00;;;;;;7386306;19;20014;-70
2023/06/24 04:21:17;;;;;;;7.47;5.75;;;20.30;1.00;;;;;;7383329;19;20035;-70
2023/06/24 04:23:46;;;;;;;9.13;6.40;;;20.50;1.00;;;;;;7384674;19;20014;-70
2023/06/24 04:26:16;;;;;;;7.00;5.60;;;21.00;1.00;;;;;;7382634;19;20085;-70
2023/06/24 04:28:46;;;;;;;8.13;5.43;;;21.70;1.00;;;;;;7385402;19;20394;-70
2023/06/24 04:31:16;;;;;;;8.00;5.68;;;22.40;1.00;;;;;;7384524;19;20361;-70
2023/06/24 04:33:49;;;;;;;7.22;6.22;;;22.80;1.00;;;;;;7388382;19;20625;-69
2023/06/24 04:36:19;;;;;;;6.75;5.78;;;22.50;1.00;;;;;;7385106;19;20082;-69
2023/06/24 04:38:49;;;;;;;7.28;5.20;;;22.40;1.00;;;;;;7384462;19;20585;-71
2023/06/24 04:41:19;;;;;;;6.75;5.53;;;22.20;1.00;;;;;;7383084;19;20535;-70
2023/06/24 04:43:49;;;;;;;9.82;5.82;;;21.50;1.00;;;;;;7383827;19;20091;-70
2023/06/24 04:46:19;;;;;;;7.53;5.65;;;21.80;1.00;;;;;;7382871;19;20014;-70
2023/06/24 04:48:52;;;;;;;8.15;6.20;;;22.60;1.00;;;;;;7384130;19;20021;-70
2023/06/24 04:51:22;;;;;;;8.38;6.35;;;21.60;1.00;;;;;;7381576;19;20597;-70
2023/06/24 04:53:52;;;;;;;7.15;6.00;;;21.20;1.00;;;;;;7386452;19;20040;-70
2023/06/24 04:56:21;;;;;;;8.20;6.00;;;21.50;1.00;;;;;;7382360;19;20015;-70
2023/06/24 04:58:51;;;;;;;9.27;5.75;;;22.00;1.00;;;;;;7383658;19;20478;-70
2023/06/24 05:01:21;;;;;;;6.38;5.40;;;21.90;1.00;;;;;;7382452;19;20053;-70
2023/06/24 05:03:54;;;;;;;8.13;6.10;;;21.40;1.00;;;;;;7384195;19;20030;-69
2023/06/24 05:06:24;;;;;;;8.27;6.65;;;20.60;1.00;;;;;;7384537;19;20082;-69
2023/06/24 05:08:54;;;;;;;7.97;6.05;;;21.30;1.00;;;;;;7383670;19;20360;-69
2023/06/24 05:11:24;;;;;;;8.48;6.00;;;21.10;1.00;;;;;;7381600;19;20545;-69
2023/06/24 05:13:53;;;;;;;9.60;5.55;;;21.30;1.00;;;;;;7383809;19;20090;-69
2023/06/24 05:16:24;;;;;;;7.47;5.55;;;22.40;1.00;;;;;;7383181;19;20021;-69
2023/06/24 05:18:56;;;;;;;7.70;5.40;;;22.20;1.00;;;;;;7383798;19;20039;-69
2023/06/24 05:21:26;;;;;;;7.82;5.53;;;23.10;1.00;;;;;;7381595;19;20017;-68
2023/06/24 05:23:56;;;;;;;7.30;5.50;;;23.30;1.00;;;;;;7383277;19;20100;-68
2023/06/24 05:26:26;;;;;;;7.55;5.05;;;23.20;1.00;;;;;;7381221;19;20513;-71
2023/06/24 05:28:56;;;;;;;6.18;5.25;;;23.20;1.00;;;;;;7384535;19;20014;-69
2023/06/24 05:31:26;;;;;;;7.13;5.38;;;22.80;1.00;;;;;;7384862;19;20014;-70
2023/06/24 05:33:58;;;;;;;7.55;5.30;;;24.00;1.00;;;;;;7381985;19;20015;-69
2023/06/24 05:36:28;;;;;;;7.93;5.70;;;23.70;1.00;;;;;;7383013;19;20018;-70
2023/06/24 05:38:58;;;;;;;7.68;5.28;;;23.30;1.00;;;;;;7381777;19;20507;-70
2023/06/24 05:41:28;;;;;;;6.68;5.25;;;23.90;1.00;;;;;;7380462;19;20842;-70
2023/06/24 05:44:04;;;;;;;7.32;5.47;;;24.20;1.00;;;;;;7382029;19;20014;-70
2023/06/24 05:46:34;;;;;;;6.32;5.18;;;23.90;1.00;;;;;;7381019;19;20019;-71
2023/06/24 05:49:07;;;;;;;11.85;6.13;;;24.70;1.00;;;;;;7382101;19;20048;-69
2023/06/24 05:51:37;;;;;;;6.28;4.95;;;23.90;1.00;;;;;;7381865;19;20014;-69
2023/06/24 05:54:07;;;;;;;6.10;5.05;;;23.80;1.00;;;;;;7385114;19;20029;-70
2023/06/24 05:56:38;;;;;;;9.02;5.18;;;23.70;1.00;;;;;;7381575;19;20392;-69
2023/06/24 05:59:09;;;;;;;11.98;6.35;;;24.20;1.00;;;;;;7382095;19;20034;-69
2023/06/24 06:01:39;;;;;;;7.90;5.00;;;23.50;1.00;;;;;;7380968;19;20014;-69
2023/06/24 06:04:11;;;;;;;6.60;5.53;;;23.70;1.00;;;;;;7380667;19;20019;-69
2023/06/24 06:06:41;;;;;;;8.18;5.65;;;22.80;1.00;;;;;;7379827;19;20015;-70
2023/06/24 06:09:11;;;;;;;7.80;5.78;;;22.40;1.00;;;;;;7381251;19;20023;-70
2023/06/24 06:11:41;;;;;;;8.02;6.30;;;21.40;1.00;;;;;;7382420;19;20567;-70
2023/06/24 06:14:11;;;;;;;8.85;5.90;;;21.00;1.00;;;;;;7381032;19;20381;-70
2023/06/24 06:16:41;;;;;;;8.50;5.53;;;21.10;1.00;;;;;;7381100;19;20058;-69
2023/06/24 06:19:14;;;;;;;7.60;5.35;;;21.80;1.00;;;;;;7381512;19;20034;-70
2023/06/24 06:21:44;;;;;;;6.43;4.80;;;21.50;1.00;;;;;;7380980;19;20014;-70
2023/06/24 06:24:13;;;;;;;7.00;5.63;;;21.50;1.00;;;;;;7381220;19;20078;-70
2023/06/24 06:26:45;;;;;;;5.75;5.05;;;21.60;1.00;;;;;;7384393;19;20482;-70
2023/06/24 06:29:15;;;;;;;5.25;4.68;;;21.90;1.00;;;;;;7380958;19;20018;-70
2023/06/24 06:31:45;;;;;;;5.80;5.20;;;22.10;1.00;;;;;;7381271;19;20113;-70
2023/06/24 06:34:18;;;;;;;8.10;5.20;;;22.10;1.00;;;;;;7379678;19;20018;-71
2023/06/24 06:36:48;;;;;;;8.15;5.03;;;23.10;1.00;;;;;;7380726;19;20060;-70
2023/06/24 06:39:17;;;;;;;6.03;4.90;;;23.90;1.00;;;;;;7380708;19;20014;-70
2023/06/24 06:41:47;;;;;;;6.30;4.85;;;24.70;1.00;;;;;;7380840;19;20564;-70
2023/06/24 06:44:17;;;;;;;7.80;5.22;;;24.30;1.00;;;;;;7379992;19;20043;-70
2023/06/24 06:46:47;;;;;;;7.03;4.97;;;23.40;1.00;;;;;;7379603;19;20821;-70
2023/06/24 06:49:20;;;;;;;7.13;5.07;;;22.70;1.00;;;;;;7378413;19;20015;-71
2023/06/24 06:51:50;;;;;;;7.28;4.45;;;22.90;1.00;;;;;;7379987;19;20021;-71
2023/06/24 06:54:20;;;;;;;5.75;4.25;;;23.10;1.00;;;;;;7380688;19;20036;-69
2023/06/24 06:56:50;;;;;;;7.97;4.72;;;22.90;1.00;;;;;;7381092;19;20007;-70
2023/06/24 06:59:20;;;;;;;6.57;4.63;;;22.60;1.00;;;;;;7380966;19;20021;-70
2023/06/24 07:01:49;;;;;;;7.82;4.93;;;23.00;1.00;;;;;;7379004;19;20027;-71
2023/06/24 07:04:22;;;;;;;6.85;4.38;;;23.40;1.00;;;;;;7377200;19;20052;-70
2023/06/24 07:06:52;;;;;;;6.10;4.72;;;23.50;1.00;;;;;;7380198;19;20018;-69
2023/06/24 07:09:22;;;;;;;5.32;4.72;;;23.20;1.00;;;;;;7379192;19;20739;-69
2023/06/24 07:11:52;;;;;;;7.93;4.25;;;23.20;1.00;;;;;;7380147;19;20235;-69
2023/06/24 07:14:22;;;;;;;6.25;4.65;;;23.10;1.00;;;;;;7378918;19;20022;-70
2023/06/24 07:16:52;;;;;;;6.47;4.05;;;23.00;1.00;;;;;;7379992;19;20014;-70
2023/06/24 07:19:24;;;;;;;8.00;4.95;;;23.30;1.00;;;;;;7382902;19;20015;-71
2023/06/24 07:21:55;;;;;;;11.15;4.82;;;23.80;1.00;;;;;;7390453;19;20011;-69
2023/06/24 07:24:24;;;;;;;5.35;4.60;;;23.40;1.00;;;;;;7386847;19;20035;-69
2023/06/24 07:26:54;;;;;;;7.10;4.85;;;23.40;1.00;;;;;;7386350;19;20014;-70
2023/06/24 07:29:24;;;;;;;4.82;4.07;;;23.40;1.00;;;;;;7389412;19;20359;-70
2023/06/24 07:31:54;;;;;;;5.07;4.43;;;23.60;1.00;;;;;;7387198;19;20451;-70
2023/06/24 07:34:27;;;;;;;6.95;4.30;;;23.30;1.00;;;;;;7385866;19;20022;-70
2023/06/24 07:36:57;;;;;;;8.68;4.50;;;23.50;1.00;;;;;;7387185;19;20031;-71
2023/06/24 07:39:28;;;;;;;6.93;4.45;;;23.80;1.00;;;;;;7387055;19;20023;-71
2023/06/24 07:41:58;;;;;;;7.22;4.22;;;24.20;1.00;;;;;;7386910;19;20011;-70
2023/06/24 07:44:28;;;;;;;4.53;4.00;;;24.00;1.00;;;;;;7385809;19;20014;-70
2023/06/24 07:46:58;;;;;;;5.03;4.18;;;24.10;1.00;;;;;;7385496;19;20018;-68
2023/06/24 07:49:30;;;;;;;4.82;3.83;;;24.20;1.00;;;;;;7384288;19;20542;-69
2023/06/24 07:52:00;;;;;;;7.47;4.05;;;23.90;1.00;;;;;;7386105;19;20021;-70
2023/06/24 07:54:30;;;;;;;4.70;4.20;;;24.00;1.00;;;;;;7389224;19;20029;-70
2023/06/24 07:57:00;;;;;;;4.78;3.97;;;24.30;1.00;;;;;;7385513;19;20503;-70
2023/06/24 07:59:30;;;;;;;7.60;4.40;;;24.40;1.00;;;;;;7383862;19;20109;-70
2023/06/24 08:02:00;;;;;;;4.88;4.20;;;24.40;1.00;;;;;;7383890;19;20019;-70
2023/06/24 08:04:33;;;;;;;4.90;4.07;;;24.70;1.00;;;;;;7385698;19;20470;-70
2023/06/24 08:07:05;;;;;;;5.53;3.50;;;24.20;1.00;;;;;;7384113;19;20432;-69
2023/06/24 08:09:35;;;;;;;5.85;3.70;;;24.10;1.00;;;;;;7384148;19;20025;-71
2023/06/24 08:12:05;;;;;;;5.55;4.20;;;24.20;1.00;;;;;;7385064;19;20078;-72
2023/06/24 08:14:35;;;;;;;5.82;4.20;;;24.50;1.00;;;;;;7384600;19;20549;-70
2023/06/24 08:17:06;;;;;;;7.43;3.90;;;24.50;1.00;;;;;;7386786;19;20042;-70
2023/06/24 08:19:38;;;;;;;3.70;3.40;;;24.60;1.00;;;;;;7389273;19;20014;-69
2023/06/24 08:22:08;;;;;;;6.03;3.50;;;24.80;1.00;;;;;;7385713;19;20029;-70
2023/06/24 08:24:39;;;;;;;5.50;3.30;;;25.20;1.00;;;;;;7383014;19;20081;-71
2023/06/24 08:27:10;;;;;;;3.63;2.95;;;25.00;1.00;;;;;;7384396;19;20095;-70
2023/06/24 08:29:40;;;;;;;4.88;3.30;;;25.40;1.00;;;;;;7385822;19;20025;-70
2023/06/24 08:32:10;;;;;;;4.10;3.70;;;24.30;1.00;;;;;;7382080;19;20458;-69
2023/06/24 08:34:42;;;;;;;3.45;3.08;;;24.30;1.00;;;;;;7383662;19;20014;-70
2023/06/24 08:37:12;;;;;;;3.63;3.25;;;25.00;1.00;;;;;;7384162;19;20015;-70
2023/06/24 08:39:42;;;;;;;3.80;3.25;;;25.40;1.00;;;;;;7381918;19;20022;-70
2023/06/24 08:42:12;;;;;;;6.03;3.53;;;25.60;1.00;;;;;;7384079;19;20512;-70
2023/06/24 08:44:43;;;;;;;4.25;3.38;;;24.30;1.00;;;;;;7382716;19;20684;-70
2023/06/24 08:47:14;;;;;;;3.75;3.20;;;25.30;1.00;;;;;;7384605;19;20495;-69
2023/06/24 08:49:52;;;;;;;4.18;3.45;;;25.50;1.00;;;;;;7386575;19;20259;-70
2023/06/24 08:52:23;;;;;;;3.33;2.80;;;25.30;1.00;;;;;;7388109;19;20328;-71
2023/06/24 08:54:54;;;;;;;4.82;3.00;;;25.70;1.00;;;;;;7386073;19;20018;-70
2023/06/24 08:57:24;;;;;;;4.25;2.97;;;25.70;1.00;;;;;;7382487;19;20011;-69
2023/06/24 08:59:55;;;;;;;3.70;2.83;;;25.90;1.00;;;;;;7386723;19;20248;-69
2023/06/24 09:02:24;;;;;;;5.05;4.43;;;26.10;1.00;;;;;;7386646;19;20014;-71
2023/06/24 09:04:57;;;;;;;3.90;3.50;;;25.70;1.00;;;;;;7386835;19;20034;-69
2023/06/24 09:07:31;;;;;;;4.80;2.97;;;25.60;1.00;;;;;;7386045;19;20018;-69
2023/06/24 09:10:01;;;;;;;4.93;2.88;;;25.50;1.00;;;;;;7387781;19;20354;-68
2023/06/24 09:12:33;;;;;;;3.80;2.33;;;25.90;1.00;;;;;;7388964;19;20355;-71
2023/06/24 09:15:05;;;;;;;2.40;2.20;;;25.20;1.00;;;;;;7388653;19;20030;-70
2023/06/24 09:17:35;;;;;;;4.38;3.10;;;25.20;1.00;;;;;;7387866;19;20036;-70
2023/06/24 09:20:11;;;;;;;5.32;3.13;;;25.40;1.00;;;;;;7388325;19;20014;-71
2023/06/24 09:22:43;;;;;;;4.10;3.10;;;25.10;1.00;;;;;;7390767;19;20116;-70
2023/06/24 09:25:19;;;;;;;3.90;2.80;;;25.10;1.00;;;;;;7389210;19;20362;-70
2023/06/24 09:27:52;;;;;;;5.10;2.90;;;25.20;1.00;;;;;;7386955;19;20453;-71
2023/06/24 09:30:24;;;;;;;3.90;2.88;;;24.70;1.00;;;;;;7385916;19;20014;-69
2023/06/24 09:32:55;;;;;;;3.38;2.78;;;25.30;1.00;;;;;;7390271;19;20025;-70
2023/06/24 09:35:28;;;;;;;5.00;2.92;;;25.80;1.00;;;;;;7387962;19;20010;-70
2023/06/24 09:37:59;;;;;;;3.45;2.75;;;26.50;1.00;;;;;;7390128;19;20052;-71
2023/06/24 09:40:29;;;;;;;4.05;2.83;;;26.20;1.00;;;;;;7385259;19;20014;-70
2023/06/24 09:43:00;;;;;;;4.45;3.15;;;25.80;1.00;;;;;;7389685;19;20436;-69
2023/06/24 09:45:31;;;;;;;3.15;2.60;;;25.70;1.00;;;;;;7387577;19;20051;-71
2023/06/24 09:48:02;;;;;;;4.47;3.13;;;25.70;1.00;;;;;;7386073;19;20011;-70
2023/06/24 09:50:36;;;;;;;6.82;3.15;;;25.60;1.00;;;;;;7386515;19;20014;-70
2023/06/24 09:53:07;;;;;;;3.38;2.83;;;25.00;1.00;;;;;;7389068;19;20011;-70
2023/06/24 09:55:43;;;;;;;3.78;2.63;;;25.50;1.00;;;;;;7388989;19;20513;-69
2023/06/24 09:58:14;;;;;;;3.95;2.70;;;25.70;1.00;;;;;;7385575;19;20430;-69
2023/06/24 10:00:44;;;;;;;5.35;2.40;;;25.80;1.00;;;;;;7386942;19;20007;-70
2023/06/24 10:03:14;;;;;;;5.45;3.00;;;26.00;1.00;;;;;;7389810;19;20263;-70
2023/06/24 10:05:47;;;;;;;5.72;3.00;;;25.50;1.00;;;;;;7387262;19;20531;-70
2023/06/24 10:08:17;;;;;;;3.22;2.70;;;25.70;1.00;;;;;;7387434;19;20018;-70
2023/06/24 10:10:47;;;;;;;3.40;2.40;;;25.50;1.00;;;;;;7386834;19;20027;-69
2023/06/24 10:13:18;;;;;;;3.05;2.30;;;25.90;1.00;;;;;;7389337;19;20102;-70
2023/06/24 10:15:49;;;;;;;3.40;2.40;;;25.80;1.00;;;;;;7385811;19;20011;-70
2023/06/24 10:18:38;;;;;;;3.22;2.22;;;26.30;1.00;;;;;;7389176;19;20015;-70
2023/06/24 10:21:11;;;;;;;3.40;2.40;;;26.40;1.00;;;;;;7386745;19;20022;-70
2023/06/24 10:23:53;;;;;;;5.68;2.70;;;26.70;1.00;;;;;;7387083;19;20407;-70
2023/06/24 10:26:28;;;;;;;4.38;2.63;;;26.10;1.00;;;;;;7389725;19;20504;-70
2023/06/24 10:29:17;;;;;;;3.03;2.38;;;25.80;1.00;;;;;;7381657;19;20475;-70
2023/06/24 10:31:56;;;;;;;3.67;2.53;;;26.00;1.00;;;;;;7388891;19;20027;-71
2023/06/24 10:34:43;;;;;;;4.63;2.55;;;25.60;1.00;;;;;;7386432;19;20019;-69
2023/06/24 10:37:20;;;;;;;2.75;2.50;;;26.30;1.00;;;;;;7386358;19;20513;-69
2023/06/24 10:39:52;;;;;;;4.40;2.50;;;26.70;1.00;;;;;;7385615;19;20038;-69
2023/06/24 10:42:46;;;;;;;2.75;2.45;;;26.80;1.00;;;;;;7386369;19;20015;-70
2023/06/24 10:45:21;;;;;;;2.75;2.40;;;27.10;1.00;;;;;;7388958;19;20462;-70
2023/06/24 10:47:53;;;;;;;3.65;2.30;;;26.40;1.00;;;;;;7383856;19;20018;-70
2023/06/24 10:50:24;;;;;;;2.72;1.92;;;26.90;1.00;;;;;;7385473;19;20019;-70
2023/06/24 10:52:57;;;;;;;3.45;2.47;;;26.40;1.00;;;;;;7385138;19;20018;-69
2023/06/24 10:55:27;;;;;;;2.53;2.10;;;25.60;1.00;;;;;;7383356;19;20075;-70
2023/06/24 10:58:09;;;;;;;2.50;2.20;;;26.20;1.00;;;;;;7384546;19;20018;-69
2023/06/24 11:00:41;;;;;;;2.70;2.25;;;26.70;1.00;;;;;;7386438;19;20014;-69
2023/06/24 11:03:12;;;;;;;3.97;2.60;;;26.60;1.00;;;;;;7385194;19;20348;-70
2023/06/24 11:05:43;;;;;;;4.38;2.72;;;26.90;1.00;;;;;;7387418;19;20011;-69
2023/06/24 11:08:16;;;;;;;3.80;2.67;;;27.10;1.00;;;;;;7386424;19;20010;-71
2023/06/24 11:10:47;;;;;;;2.95;2.53;;;26.50;1.00;;;;;;7384005;19;20078;-70
2023/06/24 11:13:17;;;;;;;3.00;2.70;;;26.60;1.00;;;;;;7383940;19;20010;-69
2023/06/24 11:15:47;;;;;;;3.22;2.58;;;26.40;1.00;;;;;;7383873;19;20014;-70
2023/06/24 11:18:17;;;;;;;3.10;2.40;;;27.10;1.00;;;;;;7385218;19;20094;-69
2023/06/24 11:20:47;;;;;;;2.60;2.20;;;27.30;1.00;;;;;;7384730;19;20038;-70
2023/06/24 11:23:19;;;;;;;3.42;2.65;;;27.20;1.00;;;;;;7383783;19;20011;-70
2023/06/24 11:25:49;;;;;;;3.88;2.20;;;27.10;1.00;;;;;;7383603;19;20026;-68
2023/06/24 11:28:20;;;;;;;3.42;2.40;;;27.30;1.00;;;;;;7387062;19;20014;-70
2023/06/24 11:30:52;;;;;;;3.33;2.50;;;27.40;1.00;;;;;;7383048;19;20019;-70
2023/06/24 11:33:30;;;;;;;2.90;2.60;;;27.50;1.00;;;;;;7386539;19;20043;-71
2023/06/24 11:36:00;;;;;;;4.00;2.70;;;27.70;1.00;;;;;;7386000;19;20042;-70
2023/06/24 11:38:33;;;;;;;4.45;2.65;;;27.60;1.00;;;;;;7385499;19;20039;-70
2023/06/24 11:41:03;;;;;;;3.22;2.63;;;27.20;1.00;;;;;;7382334;19;20014;-70
2023/06/24 11:43:33;;;;;;;3.97;2.58;;;27.20;1.00;;;;;;7383757;19;20010;-69
2023/06/24 11:46:03;;;;;;;2.53;2.33;;;26.90;1.00;;;;;;7386106;19;20412;-70
2023/06/24 11:48:41;;;;;;;4.07;2.33;;;27.50;1.00;;;;;;7386454;19;20011;-70
2023/06/24 11:51:15;;;;;;;2.80;2.53;;;27.10;1.00;;;;;;7384057;19;20546;-69
2023/06/24 11:53:48;;;;;;;3.83;2.95;;;26.90;1.00;;;;;;7381602;19;20138;-69
2023/06/24 11:56:19;;;;;;;3.25;2.55;;;27.30;1.00;;;;;;7385493;19;20074;-69
2023/06/24 11:58:51;;;;;;;2.90;2.38;;;27.10;1.00;;;;;;7383381;19;20014;-68
2023/06/24 12:01:21;;;;;;;2.83;2.55;;;26.70;1.00;;;;;;7381464;19;20014;-70
2023/06/24 12:03:53;;;;;;;3.35;2.55;;;27.60;1.00;;;;;;7385545;19;20018;-70
2023/06/24 12:06:23;;;;;;;2.50;2.30;;;28.10;1.00;;;;;;7390529;19;20011;-69
2023/06/24 12:08:56;;;;;;;3.10;2.40;;;28.00;1.00;;;;;;7392020;19;20018;-70
2023/06/24 12:11:25;;;;;;;3.20;2.50;;;28.10;1.00;;;;;;7390358;19;20107;-69
2023/06/24 12:13:55;;;;;;;2.70;2.40;;;28.00;1.00;;;;;;7392116;19;20054;-69
2023/06/24 12:16:26;;;;;;;3.25;2.60;;;27.50;1.00;;;;;;7391260;19;20030;-69
2023/06/24 12:18:56;;;;;;;2.60;2.40;;;27.30;1.00;;;;;;7387896;19;20042;-70
2023/06/24 12:21:26;;;;;;;2.83;2.30;;;27.20;1.00;;;;;;7390320;19;20034;-70
2023/06/24 12:23:59;;;;;;;3.65;2.22;;;27.00;1.00;;;;;;7390964;19;20039;-70
2023/06/24 12:26:29;;;;;;;2.95;2.38;;;27.30;1.00;;;;;;7390998;19;20014;-69
2023/06/24 12:28:59;;;;;;;2.33;1.95;;;27.80;1.00;;;;;;7387169;19;20014;-69
2023/06/24 12:31:29;;;;;;;3.20;2.63;;;27.90;1.00;;;;;;7389932;19;20082;-70
2023/06/24 12:33:59;;;;;;;2.60;2.40;;;27.80;1.00;;;;;;7390423;19;20019;-70
2023/06/24 12:36:29;;;;;;;3.70;2.35;;;27.50;1.00;;;;;;7392205;19;20018;-71
2023/06/24 12:39:02;;;;;;;3.47;2.60;;;27.60;1.00;;;;;;7391470;19;20494;-71
2023/06/24 12:41:33;;;;;;;4.32;2.70;;;27.60;1.00;;;;;;7389970;19;20331;-69
2023/06/24 12:44:03;;;;;;;2.80;2.60;;;27.30;1.00;;;;;;7390929;19;20371;-70
2023/06/24 12:46:33;;;;;;;3.22;2.80;;;27.30;1.00;;;;;;7387579;19;20417;-70
2023/06/24 12:49:03;;;;;;;3.33;2.15;;;27.80;1.00;;;;;;7394815;19;20014;-70
2023/06/24 12:51:33;;;;;;;3.38;2.33;;;28.10;1.00;;;;;;7393336;19;20088;-69
2023/06/24 12:54:06;;;;;;;2.80;2.28;;;27.60;1.00;;;;;;7386384;19;20014;-69
2023/06/24 12:56:36;;;;;;;3.50;2.40;;;27.40;1.00;;;;;;7391567;19;20605;-70
2023/06/24 12:59:06;;;;;;;3.00;2.40;;;28.10;1.00;;;;;;7389173;19;20047;-69
2023/06/24 13:01:36;;;;;;;3.70;2.70;;;27.40;1.00;;;;;;7388665;19;20010;-70
2023/06/24 13:04:06;;;;;;;4.32;2.17;;;27.60;1.00;;;;;;7392826;19;20015;-69
2023/06/24 13:06:36;;;;;;;4.57;2.50;;;27.80;1.00;;;;;;7389877;19;20083;-70
2023/06/24 13:09:09;;;;;;;2.80;2.20;;;28.10;1.00;;;;;;7388916;19;20425;-69
2023/06/24 13:11:40;;;;;;;3.28;2.33;;;28.00;1.00;;;;;;7388440;19;20078;-68
2023/06/24 13:14:10;;;;;;;2.70;2.38;;;28.50;1.00;;;;;;7387387;19;20017;-70
2023/06/24 13:16:40;;;;;;;2.45;2.25;;;28.80;1.00;;;;;;7385102;19;20371;-69
2023/06/24 13:19:09;;;;;;;2.92;2.40;;;28.40;1.00;;;;;;7390289;19;20332;-70
2023/06/24 13:21:40;;;;;;;5.22;2.40;;;27.90;1.00;;;;;;7392508;19;20014;-69